sensor_id;sensor_type;location;lat;lon;timestamp;P1;durP1;ratioP1;P2;durP2;ratioP2
29240;SDS011;16268;49.880;8.648;2022-08-11T00:01:49;7.35;;;2.25;;
29240;SDS011;16268;49.880;8.648;2022-08-11T00:04:19;4.35;;;2.28;;
29240;SDS011;16268;49.880;8.648;2022-08-11T00:06:47;4.97;;;2.45;;
29240;SDS011;16268;49.880;8.648;2022-08-11T00:09:20;4.95;;;2.22;;
29240;SDS011;16268;49.880;8.648;2022-08-11T00:11:55;5.47;;;2.22;;
29240;SDS011;16268;49.880;8.648;2022-08-11T00:14:29;6.00;;;2.00;;
29240;SDS011;16268;49.880;8.648;2022-08-11T00:16:58;5.20;;;2.55;;
29240;SDS011;16268;49.880;8.648;2022-08-11T00:19:45;8.40;;;2.33;;
29240;SDS011;16268;49.880;8.648;2022-08-11T00:22:19;6.75;;;2.20;;
29240;SDS011;16268;49.880;8.648;2022-08-11T00:24:46;5.75;;;2.38;;
29240;SDS011;16268;49.880;8.648;2022-08-11T00:27:13;4.57;;;2.40;;
29240;SDS011;16268;49.880;8.648;2022-08-11T00:29:39;6.18;;;2.22;;
29240;SDS011;16268;49.880;8.648;2022-08-11T00:32:05;5.20;;;2.30;;
29240;SDS011;16268;49.880;8.648;2022-08-11T00:34:38;4.70;;;2.15;;
29240;SDS011;16268;49.880;8.648;2022-08-11T00:37:09;5.18;;;2.33;;
29240;SDS011;16268;49.880;8.648;2022-08-11T00:39:44;5.15;;;2.20;;
29240;SDS011;16268;49.880;8.648;2022-08-11T00:45:26;5.22;;;2.20;;
29240;SDS011;16268;49.880;8.648;2022-08-11T00:51:20;6.63;;;2.50;;
29240;SDS011;16268;49.880;8.648;2022-08-11T00:54:11;5.88;;;2.15;;
29240;SDS011;16268;49.880;8.648;2022-08-11T01:24:30;4.50;;;2.20;;
29240;SDS011;16268;49.880;8.648;2022-08-11T01:33:07;6.82;;;2.17;;
29240;SDS011;16268;49.880;8.648;2022-08-11T01:39:09;5.78;;;2.30;;
29240;SDS011;16268;49.880;8.648;2022-08-11T01:53:14;4.18;;;2.20;;
29240;SDS011;16268;49.880;8.648;2022-08-11T01:59:33;7.07;;;2.38;;
29240;SDS011;16268;49.880;8.648;2022-08-11T02:06:51;5.45;;;2.25;;
29240;SDS011;16268;49.880;8.648;2022-08-11T02:09:51;5.63;;;2.28;;
29240;SDS011;16268;49.880;8.648;2022-08-11T02:12:57;4.70;;;2.25;;
29240;SDS011;16268;49.880;8.648;2022-08-11T02:15:27;5.65;;;2.22;;
29240;SDS011;16268;49.880;8.648;2022-08-11T02:18:15;6.03;;;2.35;;
29240;SDS011;16268;49.880;8.648;2022-08-11T02:20:51;4.22;;;2.08;;
29240;SDS011;16268;49.880;8.648;2022-08-11T02:23:42;5.55;;;2.30;;
29240;SDS011;16268;49.880;8.648;2022-08-11T02:26:20;6.35;;;2.17;;
29240;SDS011;16268;49.880;8.648;2022-08-11T02:34:27;5.18;;;2.05;;
29240;SDS011;16268;49.880;8.648;2022-08-11T02:43:10;5.30;;;2.20;;
29240;SDS011;16268;49.880;8.648;2022-08-11T02:45:11;4.28;;;1.95;;
29240;SDS011;16268;49.880;8.648;2022-08-11T02:48:23;4.10;;;2.10;;
29240;SDS011;16268;49.880;8.648;2022-08-11T02:51:43;4.65;;;2.13;;
29240;SDS011;16268;49.880;8.648;2022-08-11T02:54:24;3.78;;;2.08;;
29240;SDS011;16268;49.880;8.648;2022-08-11T02:56:57;5.78;;;2.45;;
29240;SDS011;16268;49.880;8.648;2022-08-11T02:59:52;5.78;;;2.50;;
29240;SDS011;16268;49.880;8.648;2022-08-11T03:13:42;5.70;;;2.30;;
29240;SDS011;16268;49.880;8.648;2022-08-11T03:16:41;6.53;;;2.25;;
29240;SDS011;16268;49.880;8.648;2022-08-11T03:21:55;4.10;;;2.08;;
29240;SDS011;16268;49.880;8.648;2022-08-11T03:24:50;5.07;;;2.30;;
29240;SDS011;16268;49.880;8.648;2022-08-11T03:27:32;5.65;;;2.40;;
29240;SDS011;16268;49.880;8.648;2022-08-11T03:30:51;5.78;;;2.53;;
29240;SDS011;16268;49.880;8.648;2022-08-11T03:33:39;4.70;;;2.53;;
29240;SDS011;16268;49.880;8.648;2022-08-11T03:36:35;5.63;;;2.42;;
29240;SDS011;16268;49.880;8.648;2022-08-11T03:39:12;5.90;;;2.40;;
29240;SDS011;16268;49.880;8.648;2022-08-11T03:53:02;5.80;;;2.42;;
29240;SDS011;16268;49.880;8.648;2022-08-11T04:19:28;8.98;;;4.95;;
29240;SDS011;16268;49.880;8.648;2022-08-11T04:36:14;18.10;;;11.25;;
29240;SDS011;16268;49.880;8.648;2022-08-11T04:39:42;9.45;;;5.50;;
29240;SDS011;16268;49.880;8.648;2022-08-11T04:48:37;8.75;;;4.75;;
29240;SDS011;16268;49.880;8.648;2022-08-11T04:51:43;9.90;;;5.53;;
29240;SDS011;16268;49.880;8.648;2022-08-11T05:03:42;9.50;;;5.20;;
29240;SDS011;16268;49.880;8.648;2022-08-11T05:12:00;9.82;;;4.18;;
29240;SDS011;16268;49.880;8.648;2022-08-11T05:14:31;7.10;;;4.13;;
29240;SDS011;16268;49.880;8.648;2022-08-11T05:17:33;7.47;;;3.92;;
29240;SDS011;16268;49.880;8.648;2022-08-11T05:20:20;7.93;;;4.30;;
29240;SDS011;16268;49.880;8.648;2022-08-11T05:23:08;10.25;;;4.00;;
29240;SDS011;16268;49.880;8.648;2022-08-11T05:25:54;8.35;;;4.07;;
29240;SDS011;16268;49.880;8.648;2022-08-11T05:29:23;6.97;;;3.42;;
29240;SDS011;16268;49.880;8.648;2022-08-11T05:32:06;7.50;;;3.30;;
29240;SDS011;16268;49.880;8.648;2022-08-11T05:40:09;6.88;;;3.30;;
29240;SDS011;16268;49.880;8.648;2022-08-11T05:43:07;6.78;;;2.67;;
29240;SDS011;16268;49.880;8.648;2022-08-11T05:45:58;7.35;;;3.10;;
29240;SDS011;16268;49.880;8.648;2022-08-11T05:48:44;7.40;;;3.20;;
29240;SDS011;16268;49.880;8.648;2022-08-11T05:51:35;6.15;;;3.30;;
29240;SDS011;16268;49.880;8.648;2022-08-11T05:54:25;5.35;;;2.80;;
29240;SDS011;16268;49.880;8.648;2022-08-11T05:57:17;6.70;;;3.00;;
29240;SDS011;16268;49.880;8.648;2022-08-11T05:59:45;5.95;;;2.75;;
29240;SDS011;16268;49.880;8.648;2022-08-11T06:02:11;7.05;;;3.13;;
29240;SDS011;16268;49.880;8.648;2022-08-11T06:04:38;5.97;;;2.90;;
29240;SDS011;16268;49.880;8.648;2022-08-11T06:07:05;6.13;;;2.80;;
29240;SDS011;16268;49.880;8.648;2022-08-11T06:09:47;4.60;;;2.58;;
29240;SDS011;16268;49.880;8.648;2022-08-11T06:14:42;5.22;;;2.78;;
29240;SDS011;16268;49.880;8.648;2022-08-11T06:17:13;5.80;;;2.50;;
29240;SDS011;16268;49.880;8.648;2022-08-11T06:19:46;5.38;;;2.40;;
29240;SDS011;16268;49.880;8.648;2022-08-11T06:22:12;4.50;;;2.28;;
29240;SDS011;16268;49.880;8.648;2022-08-11T06:24:50;7.63;;;2.28;;
29240;SDS011;16268;49.880;8.648;2022-08-11T06:27:23;5.22;;;2.45;;
29240;SDS011;16268;49.880;8.648;2022-08-11T06:29:52;8.93;;;2.47;;
29240;SDS011;16268;49.880;8.648;2022-08-11T06:32:20;5.93;;;2.40;;
29240;SDS011;16268;49.880;8.648;2022-08-11T06:35:04;3.92;;;2.20;;
29240;SDS011;16268;49.880;8.648;2022-08-11T06:40:36;6.13;;;2.55;;
29240;SDS011;16268;49.880;8.648;2022-08-11T06:46:37;5.10;;;2.22;;
29240;SDS011;16268;49.880;8.648;2022-08-11T06:49:04;5.13;;;2.60;;
29240;SDS011;16268;49.880;8.648;2022-08-11T06:51:51;5.13;;;2.20;;
29240;SDS011;16268;49.880;8.648;2022-08-11T06:54:20;6.40;;;2.50;;
29240;SDS011;16268;49.880;8.648;2022-08-11T06:56:46;4.25;;;2.05;;
29240;SDS011;16268;49.880;8.648;2022-08-11T06:59:32;6.90;;;2.13;;
29240;SDS011;16268;49.880;8.648;2022-08-11T07:02:26;4.75;;;2.00;;
29240;SDS011;16268;49.880;8.648;2022-08-11T07:05:02;3.85;;;2.08;;
29240;SDS011;16268;49.880;8.648;2022-08-11T07:13:50;5.75;;;2.10;;
29240;SDS011;16268;49.880;8.648;2022-08-11T07:16:37;5.60;;;2.30;;
29240;SDS011;16268;49.880;8.648;2022-08-11T07:19:07;5.97;;;2.55;;
29240;SDS011;16268;49.880;8.648;2022-08-11T07:21:52;3.70;;;1.90;;
29240;SDS011;16268;49.880;8.648;2022-08-11T07:24:40;7.65;;;3.03;;
29240;SDS011;16268;49.880;8.648;2022-08-11T07:27:41;6.75;;;2.58;;
29240;SDS011;16268;49.880;8.648;2022-08-11T07:30:28;7.47;;;2.50;;
29240;SDS011;16268;49.880;8.648;2022-08-11T07:32:57;10.32;;;3.53;;
29240;SDS011;16268;49.880;8.648;2022-08-11T07:35:33;4.95;;;2.28;;
29240;SDS011;16268;49.880;8.648;2022-08-11T07:38:06;4.57;;;2.15;;
29240;SDS011;16268;49.880;8.648;2022-08-11T07:40:44;5.88;;;2.28;;
29240;SDS011;16268;49.880;8.648;2022-08-11T07:43:10;5.55;;;2.10;;
29240;SDS011;16268;49.880;8.648;2022-08-11T07:45:41;4.72;;;2.20;;
29240;SDS011;16268;49.880;8.648;2022-08-11T07:48:26;4.75;;;2.20;;
29240;SDS011;16268;49.880;8.648;2022-08-11T07:51:12;9.02;;;3.78;;
29240;SDS011;16268;49.880;8.648;2022-08-11T07:54:02;4.13;;;2.28;;
29240;SDS011;16268;49.880;8.648;2022-08-11T07:56:31;7.53;;;2.10;;
29240;SDS011;16268;49.880;8.648;2022-08-11T07:58:58;5.03;;;2.17;;
29240;SDS011;16268;49.880;8.648;2022-08-11T08:01:42;6.40;;;2.45;;
29240;SDS011;16268;49.880;8.648;2022-08-11T08:04:26;4.10;;;2.13;;
29240;SDS011;16268;49.880;8.648;2022-08-11T08:07:11;5.95;;;2.33;;
29240;SDS011;16268;49.880;8.648;2022-08-11T08:09:56;4.90;;;2.15;;
29240;SDS011;16268;49.880;8.648;2022-08-11T08:12:40;7.03;;;2.55;;
29240;SDS011;16268;49.880;8.648;2022-08-11T08:15:25;4.22;;;1.92;;
29240;SDS011;16268;49.880;8.648;2022-08-11T08:18:10;5.45;;;2.70;;
29240;SDS011;16268;49.880;8.648;2022-08-11T08:20:47;4.75;;;2.10;;
29240;SDS011;16268;49.880;8.648;2022-08-11T08:23:18;6.95;;;2.10;;
29240;SDS011;16268;49.880;8.648;2022-08-11T08:25:57;6.95;;;2.30;;
29240;SDS011;16268;49.880;8.648;2022-08-11T08:28:25;4.22;;;2.08;;
29240;SDS011;16268;49.880;8.648;2022-08-11T08:30:52;8.10;;;2.97;;
29240;SDS011;16268;49.880;8.648;2022-08-11T08:33:29;4.75;;;2.10;;
29240;SDS011;16268;49.880;8.648;2022-08-11T08:35:56;5.88;;;2.20;;
29240;SDS011;16268;49.880;8.648;2022-08-11T08:38:48;4.70;;;2.15;;
29240;SDS011;16268;49.880;8.648;2022-08-11T08:41:18;4.90;;;2.00;;
29240;SDS011;16268;49.880;8.648;2022-08-11T08:43:52;4.53;;;2.35;;
29240;SDS011;16268;49.880;8.648;2022-08-11T08:46:21;4.13;;;1.80;;
29240;SDS011;16268;49.880;8.648;2022-08-11T08:48:53;5.72;;;2.30;;
29240;SDS011;16268;49.880;8.648;2022-08-11T08:51:21;3.95;;;1.98;;
29240;SDS011;16268;49.880;8.648;2022-08-11T08:54:02;5.50;;;2.10;;
29240;SDS011;16268;49.880;8.648;2022-08-11T08:56:30;6.78;;;1.98;;
29240;SDS011;16268;49.880;8.648;2022-08-11T08:58:58;3.85;;;2.10;;
29240;SDS011;16268;49.880;8.648;2022-08-11T09:01:27;4.38;;;2.05;;
29240;SDS011;16268;49.880;8.648;2022-08-11T09:03:57;3.85;;;1.95;;
29240;SDS011;16268;49.880;8.648;2022-08-11T09:06:24;4.25;;;1.90;;
29240;SDS011;16268;49.880;8.648;2022-08-11T09:08:49;4.22;;;1.70;;
29240;SDS011;16268;49.880;8.648;2022-08-11T09:11:15;3.33;;;1.80;;
29240;SDS011;16268;49.880;8.648;2022-08-11T09:14:00;3.88;;;1.98;;
29240;SDS011;16268;49.880;8.648;2022-08-11T09:16:27;5.25;;;1.88;;
29240;SDS011;16268;49.880;8.648;2022-08-11T09:18:53;6.57;;;1.80;;
29240;SDS011;16268;49.880;8.648;2022-08-11T09:21:19;5.65;;;2.20;;
29240;SDS011;16268;49.880;8.648;2022-08-11T09:23:47;3.95;;;1.85;;
29240;SDS011;16268;49.880;8.648;2022-08-11T09:26:34;3.53;;;1.70;;
29240;SDS011;16268;49.880;8.648;2022-08-11T09:29:23;3.00;;;1.70;;
29240;SDS011;16268;49.880;8.648;2022-08-11T09:31:51;5.15;;;1.70;;
29240;SDS011;16268;49.880;8.648;2022-08-11T09:34:17;6.85;;;2.10;;
29240;SDS011;16268;49.880;8.648;2022-08-11T09:36:43;5.20;;;1.90;;
29240;SDS011;16268;49.880;8.648;2022-08-11T09:39:28;5.28;;;2.13;;
29240;SDS011;16268;49.880;8.648;2022-08-11T09:42:14;5.47;;;1.88;;
29240;SDS011;16268;49.880;8.648;2022-08-11T09:44:41;3.78;;;1.73;;
29240;SDS011;16268;49.880;8.648;2022-08-11T09:47:17;3.90;;;1.70;;
29240;SDS011;16268;49.880;8.648;2022-08-11T09:49:55;3.23;;;1.53;;
29240;SDS011;16268;49.880;8.648;2022-08-11T09:52:25;3.92;;;1.83;;
29240;SDS011;16268;49.880;8.648;2022-08-11T09:54:58;4.55;;;1.92;;
29240;SDS011;16268;49.880;8.648;2022-08-11T09:57:26;4.32;;;1.80;;
29240;SDS011;16268;49.880;8.648;2022-08-11T10:00:10;3.70;;;1.70;;
29240;SDS011;16268;49.880;8.648;2022-08-11T10:02:44;4.28;;;2.22;;
29240;SDS011;16268;49.880;8.648;2022-08-11T10:05:12;4.65;;;1.70;;
29240;SDS011;16268;49.880;8.648;2022-08-11T10:07:59;4.15;;;1.85;;
29240;SDS011;16268;49.880;8.648;2022-08-11T10:10:25;5.65;;;2.33;;
29240;SDS011;16268;49.880;8.648;2022-08-11T10:12:57;5.13;;;2.05;;
29240;SDS011;16268;49.880;8.648;2022-08-11T10:15:26;4.95;;;1.85;;
29240;SDS011;16268;49.880;8.648;2022-08-11T10:18:08;4.47;;;2.20;;
29240;SDS011;16268;49.880;8.648;2022-08-11T10:21:00;5.18;;;1.98;;
29240;SDS011;16268;49.880;8.648;2022-08-11T10:23:31;5.50;;;2.38;;
29240;SDS011;16268;49.880;8.648;2022-08-11T10:26:17;6.22;;;2.00;;
29240;SDS011;16268;49.880;8.648;2022-08-11T10:29:04;4.50;;;1.90;;
29240;SDS011;16268;49.880;8.648;2022-08-11T10:31:52;4.47;;;1.73;;
29240;SDS011;16268;49.880;8.648;2022-08-11T10:34:37;4.03;;;1.70;;
29240;SDS011;16268;49.880;8.648;2022-08-11T10:37:04;3.88;;;1.70;;
29240;SDS011;16268;49.880;8.648;2022-08-11T10:39:31;5.75;;;2.00;;
29240;SDS011;16268;49.880;8.648;2022-08-11T10:41:58;4.05;;;1.67;;
29240;SDS011;16268;49.880;8.648;2022-08-11T10:44:44;4.97;;;1.88;;
29240;SDS011;16268;49.880;8.648;2022-08-11T10:47:12;4.35;;;2.00;;
29240;SDS011;16268;49.880;8.648;2022-08-11T10:49:58;6.93;;;2.10;;
29240;SDS011;16268;49.880;8.648;2022-08-11T10:52:44;5.05;;;2.13;;
29240;SDS011;16268;49.880;8.648;2022-08-11T10:55:32;5.07;;;2.05;;
29240;SDS011;16268;49.880;8.648;2022-08-11T10:58:19;5.65;;;2.00;;
29240;SDS011;16268;49.880;8.648;2022-08-11T11:01:05;5.32;;;2.00;;
29240;SDS011;16268;49.880;8.648;2022-08-11T11:03:31;5.85;;;2.00;;
29240;SDS011;16268;49.880;8.648;2022-08-11T11:09:03;5.60;;;2.13;;
29240;SDS011;16268;49.880;8.648;2022-08-11T11:11:34;4.57;;;1.90;;
29240;SDS011;16268;49.880;8.648;2022-08-11T11:14:21;5.88;;;2.13;;
29240;SDS011;16268;49.880;8.648;2022-08-11T11:17:12;4.90;;;2.20;;
29240;SDS011;16268;49.880;8.648;2022-08-11T11:19:57;5.10;;;2.00;;
29240;SDS011;16268;49.880;8.648;2022-08-11T11:22:24;4.38;;;2.30;;
29240;SDS011;16268;49.880;8.648;2022-08-11T11:30:15;5.35;;;2.22;;
29240;SDS011;16268;49.880;8.648;2022-08-11T11:37:45;6.20;;;2.70;;
29240;SDS011;16268;49.880;8.648;2022-08-11T11:40:14;5.40;;;2.20;;
29240;SDS011;16268;49.880;8.648;2022-08-11T11:42:45;4.75;;;2.20;;
29240;SDS011;16268;49.880;8.648;2022-08-11T11:45:14;3.92;;;2.10;;
29240;SDS011;16268;49.880;8.648;2022-08-11T11:47:42;8.02;;;2.45;;
29240;SDS011;16268;49.880;8.648;2022-08-11T11:50:08;4.85;;;2.17;;
29240;SDS011;16268;49.880;8.648;2022-08-11T11:52:34;5.57;;;2.17;;
29240;SDS011;16268;49.880;8.648;2022-08-11T11:55:03;4.23;;;1.93;;
29240;SDS011;16268;49.880;8.648;2022-08-11T11:57:30;3.38;;;1.70;;
29240;SDS011;16268;49.880;8.648;2022-08-11T12:00:16;4.70;;;2.15;;
29240;SDS011;16268;49.880;8.648;2022-08-11T12:03:03;4.95;;;2.22;;
29240;SDS011;16268;49.880;8.648;2022-08-11T12:05:33;4.97;;;1.98;;
29240;SDS011;16268;49.880;8.648;2022-08-11T12:08:01;5.28;;;2.13;;
29240;SDS011;16268;49.880;8.648;2022-08-11T12:10:47;3.58;;;1.90;;
29240;SDS011;16268;49.880;8.648;2022-08-11T12:13:43;4.63;;;2.00;;
29240;SDS011;16268;49.880;8.648;2022-08-11T12:16:12;4.55;;;2.03;;
29240;SDS011;16268;49.880;8.648;2022-08-11T12:18:39;3.42;;;2.00;;
29240;SDS011;16268;49.880;8.648;2022-08-11T12:21:07;4.13;;;2.22;;
29240;SDS011;16268;49.880;8.648;2022-08-11T12:23:33;5.05;;;2.13;;
29240;SDS011;16268;49.880;8.648;2022-08-11T12:26:19;4.75;;;2.00;;
29240;SDS011;16268;49.880;8.648;2022-08-11T12:29:23;3.90;;;2.00;;
29240;SDS011;16268;49.880;8.648;2022-08-11T12:31:51;3.80;;;1.90;;
29240;SDS011;16268;49.880;8.648;2022-08-11T12:34:18;4.50;;;2.17;;
29240;SDS011;16268;49.880;8.648;2022-08-11T12:36:48;3.63;;;2.05;;
29240;SDS011;16268;49.880;8.648;2022-08-11T12:39:26;3.63;;;1.80;;
29240;SDS011;16268;49.880;8.648;2022-08-11T12:42:16;4.03;;;2.13;;
29240;SDS011;16268;49.880;8.648;2022-08-11T12:45:02;3.42;;;1.80;;
29240;SDS011;16268;49.880;8.648;2022-08-11T12:47:51;3.58;;;1.88;;
29240;SDS011;16268;49.880;8.648;2022-08-11T12:50:40;4.35;;;2.15;;
29240;SDS011;16268;49.880;8.648;2022-08-11T12:53:26;3.63;;;1.90;;
29240;SDS011;16268;49.880;8.648;2022-08-11T12:55:54;4.78;;;2.22;;
29240;SDS011;16268;49.880;8.648;2022-08-11T13:01:09;5.18;;;2.15;;
29240;SDS011;16268;49.880;8.648;2022-08-11T13:03:54;4.95;;;1.90;;
29240;SDS011;16268;49.880;8.648;2022-08-11T13:06:39;7.70;;;2.00;;
29240;SDS011;16268;49.880;8.648;2022-08-11T13:09:06;4.07;;;1.90;;
29240;SDS011;16268;49.880;8.648;2022-08-11T13:11:33;3.72;;;2.03;;
29240;SDS011;16268;49.880;8.648;2022-08-11T13:14:26;4.18;;;2.00;;
29240;SDS011;16268;49.880;8.648;2022-08-11T13:16:57;3.90;;;1.80;;
29240;SDS011;16268;49.880;8.648;2022-08-11T13:19:42;4.32;;;1.83;;
29240;SDS011;16268;49.880;8.648;2022-08-11T13:22:09;4.78;;;1.75;;
29240;SDS011;16268;49.880;8.648;2022-08-11T13:24:36;5.57;;;1.85;;
29240;SDS011;16268;49.880;8.648;2022-08-11T13:27:04;7.00;;;1.90;;
29240;SDS011;16268;49.880;8.648;2022-08-11T13:29:30;4.70;;;1.95;;
29240;SDS011;16268;49.880;8.648;2022-08-11T13:31:56;7.20;;;2.40;;
29240;SDS011;16268;49.880;8.648;2022-08-11T13:34:24;4.20;;;1.73;;
29240;SDS011;16268;49.880;8.648;2022-08-11T13:36:52;5.20;;;2.20;;
29240;SDS011;16268;49.880;8.648;2022-08-11T13:39:23;6.25;;;2.38;;
29240;SDS011;16268;49.880;8.648;2022-08-11T13:41:54;4.07;;;1.80;;
29240;SDS011;16268;49.880;8.648;2022-08-11T13:44:23;4.38;;;2.13;;
29240;SDS011;16268;49.880;8.648;2022-08-11T13:46:52;4.20;;;2.00;;
29240;SDS011;16268;49.880;8.648;2022-08-11T13:51:46;3.92;;;1.85;;
29240;SDS011;16268;49.880;8.648;2022-08-11T13:54:16;5.18;;;1.98;;
29240;SDS011;16268;49.880;8.648;2022-08-11T13:56:44;5.90;;;2.05;;
29240;SDS011;16268;49.880;8.648;2022-08-11T13:59:13;5.70;;;2.13;;
29240;SDS011;16268;49.880;8.648;2022-08-11T14:01:46;5.97;;;2.10;;
29240;SDS011;16268;49.880;8.648;2022-08-11T14:06:44;5.80;;;1.80;;
29240;SDS011;16268;49.880;8.648;2022-08-11T14:09:26;3.35;;;1.80;;
29240;SDS011;16268;49.880;8.648;2022-08-11T14:11:55;4.22;;;1.90;;
29240;SDS011;16268;49.880;8.648;2022-08-11T14:14:46;3.88;;;1.60;;
29240;SDS011;16268;49.880;8.648;2022-08-11T14:17:16;5.78;;;2.00;;
29240;SDS011;16268;49.880;8.648;2022-08-11T14:19:46;3.80;;;1.75;;
29240;SDS011;16268;49.880;8.648;2022-08-11T14:22:16;5.57;;;2.05;;
29240;SDS011;16268;49.880;8.648;2022-08-11T14:24:42;4.10;;;1.90;;
29240;SDS011;16268;49.880;8.648;2022-08-11T14:27:13;5.03;;;1.83;;
29240;SDS011;16268;49.880;8.648;2022-08-11T14:29:40;3.30;;;1.80;;
29240;SDS011;16268;49.880;8.648;2022-08-11T14:32:08;3.20;;;1.73;;
29240;SDS011;16268;49.880;8.648;2022-08-11T14:34:38;4.95;;;1.85;;
29240;SDS011;16268;49.880;8.648;2022-08-11T14:37:06;3.58;;;1.67;;
29240;SDS011;16268;49.880;8.648;2022-08-11T14:39:40;5.45;;;1.95;;
29240;SDS011;16268;49.880;8.648;2022-08-11T14:42:09;4.43;;;1.77;;
29240;SDS011;16268;49.880;8.648;2022-08-11T14:44:57;5.22;;;1.80;;
29240;SDS011;16268;49.880;8.648;2022-08-11T14:47:54;4.50;;;1.50;;
29240;SDS011;16268;49.880;8.648;2022-08-11T14:50:24;3.28;;;1.70;;
29240;SDS011;16268;49.880;8.648;2022-08-11T14:52:54;3.65;;;1.55;;
29240;SDS011;16268;49.880;8.648;2022-08-11T14:55:23;4.28;;;1.73;;
29240;SDS011;16268;49.880;8.648;2022-08-11T14:58:09;5.85;;;1.60;;
29240;SDS011;16268;49.880;8.648;2022-08-11T15:00:37;6.07;;;1.98;;
29240;SDS011;16268;49.880;8.648;2022-08-11T15:03:03;5.13;;;1.90;;
29240;SDS011;16268;49.880;8.648;2022-08-11T15:05:40;2.58;;;1.38;;
29240;SDS011;16268;49.880;8.648;2022-08-11T15:08:14;4.80;;;1.77;;
29240;SDS011;16268;49.880;8.648;2022-08-11T15:10:41;3.65;;;1.55;;
29240;SDS011;16268;49.880;8.648;2022-08-11T15:13:08;4.68;;;1.67;;
29240;SDS011;16268;49.880;8.648;2022-08-11T15:15:34;3.75;;;1.50;;
29240;SDS011;16268;49.880;8.648;2022-08-11T15:18:19;3.60;;;1.50;;
29240;SDS011;16268;49.880;8.648;2022-08-11T15:20:49;5.97;;;1.83;;
29240;SDS011;16268;49.880;8.648;2022-08-11T15:23:33;7.32;;;1.77;;
29240;SDS011;16268;49.880;8.648;2022-08-11T15:26:20;2.65;;;1.40;;
29240;SDS011;16268;49.880;8.648;2022-08-11T15:29:23;3.55;;;1.60;;
29240;SDS011;16268;49.880;8.648;2022-08-11T15:32:11;5.00;;;1.65;;
29240;SDS011;16268;49.880;8.648;2022-08-11T15:35:17;3.70;;;1.70;;
29240;SDS011;16268;49.880;8.648;2022-08-11T15:37:57;5.38;;;1.60;;
29240;SDS011;16268;49.880;8.648;2022-08-11T15:40:43;4.00;;;1.92;;
29240;SDS011;16268;49.880;8.648;2022-08-11T15:43:30;3.28;;;1.80;;
29240;SDS011;16268;49.880;8.648;2022-08-11T15:46:29;5.38;;;1.75;;
29240;SDS011;16268;49.880;8.648;2022-08-11T15:48:58;4.03;;;1.67;;
29240;SDS011;16268;49.880;8.648;2022-08-11T15:51:51;3.92;;;1.60;;
29240;SDS011;16268;49.880;8.648;2022-08-11T15:54:25;3.47;;;1.58;;
29240;SDS011;16268;49.880;8.648;2022-08-11T15:56:55;3.92;;;1.73;;
29240;SDS011;16268;49.880;8.648;2022-08-11T15:59:22;6.28;;;1.75;;
29240;SDS011;16268;49.880;8.648;2022-08-11T16:02:11;3.95;;;1.70;;
29240;SDS011;16268;49.880;8.648;2022-08-11T16:04:42;4.65;;;1.77;;
29240;SDS011;16268;49.880;8.648;2022-08-11T16:07:11;4.57;;;1.73;;
29240;SDS011;16268;49.880;8.648;2022-08-11T16:12:18;3.05;;;1.45;;
29240;SDS011;16268;49.880;8.648;2022-08-11T16:14:48;3.85;;;1.88;;
29240;SDS011;16268;49.880;8.648;2022-08-11T16:17:36;4.40;;;1.90;;
29240;SDS011;16268;49.880;8.648;2022-08-11T16:20:09;3.25;;;1.80;;
29240;SDS011;16268;49.880;8.648;2022-08-11T16:22:37;4.25;;;1.73;;
29240;SDS011;16268;49.880;8.648;2022-08-11T16:25:18;3.40;;;1.65;;
29240;SDS011;16268;49.880;8.648;2022-08-11T16:27:48;7.57;;;1.77;;
29240;SDS011;16268;49.880;8.648;2022-08-11T16:30:16;3.88;;;1.70;;
29240;SDS011;16268;49.880;8.648;2022-08-11T16:32:43;5.15;;;1.88;;
29240;SDS011;16268;49.880;8.648;2022-08-11T16:35:14;3.90;;;1.65;;
29240;SDS011;16268;49.880;8.648;2022-08-11T16:38:00;3.92;;;1.70;;
29240;SDS011;16268;49.880;8.648;2022-08-11T16:40:48;3.92;;;1.60;;
29240;SDS011;16268;49.880;8.648;2022-08-11T16:43:16;5.72;;;1.70;;
29240;SDS011;16268;49.880;8.648;2022-08-11T16:46:03;3.35;;;1.60;;
29240;SDS011;16268;49.880;8.648;2022-08-11T16:48:49;4.82;;;2.15;;
29240;SDS011;16268;49.880;8.648;2022-08-11T16:53:45;3.05;;;1.50;;
29240;SDS011;16268;49.880;8.648;2022-08-11T16:56:16;6.63;;;2.17;;
29240;SDS011;16268;49.880;8.648;2022-08-11T16:58:45;3.45;;;1.58;;
29240;SDS011;16268;49.880;8.648;2022-08-11T17:01:39;5.30;;;2.10;;
29240;SDS011;16268;49.880;8.648;2022-08-11T17:04:35;5.30;;;2.10;;
29240;SDS011;16268;49.880;8.648;2022-08-11T17:07:20;5.65;;;1.92;;
29240;SDS011;16268;49.880;8.648;2022-08-11T17:10:08;4.30;;;1.63;;
29240;SDS011;16268;49.880;8.648;2022-08-11T17:12:57;5.05;;;1.90;;
29240;SDS011;16268;49.880;8.648;2022-08-11T17:15:36;3.00;;;1.55;;
29240;SDS011;16268;49.880;8.648;2022-08-11T17:18:24;4.40;;;1.70;;
29240;SDS011;16268;49.880;8.648;2022-08-11T17:21:05;4.13;;;1.70;;
29240;SDS011;16268;49.880;8.648;2022-08-11T17:23:33;3.80;;;1.67;;
29240;SDS011;16268;49.880;8.648;2022-08-11T17:26:14;3.72;;;1.90;;
29240;SDS011;16268;49.880;8.648;2022-08-11T17:28:47;3.33;;;1.67;;
29240;SDS011;16268;49.880;8.648;2022-08-11T17:31:16;3.92;;;1.90;;
29240;SDS011;16268;49.880;8.648;2022-08-11T17:34:04;3.83;;;1.58;;
29240;SDS011;16268;49.880;8.648;2022-08-11T17:36:51;3.92;;;1.85;;
29240;SDS011;16268;49.880;8.648;2022-08-11T17:39:18;3.90;;;1.60;;
29240;SDS011;16268;49.880;8.648;2022-08-11T17:41:47;6.10;;;1.60;;
29240;SDS011;16268;49.880;8.648;2022-08-11T17:44:31;5.35;;;2.20;;
29240;SDS011;16268;49.880;8.648;2022-08-11T17:47:17;3.95;;;1.90;;
29240;SDS011;16268;49.880;8.648;2022-08-11T17:50:02;5.20;;;1.85;;
29240;SDS011;16268;49.880;8.648;2022-08-11T17:52:29;5.25;;;2.35;;
29240;SDS011;16268;49.880;8.648;2022-08-11T17:55:14;4.95;;;1.83;;
29240;SDS011;16268;49.880;8.648;2022-08-11T17:57:59;6.05;;;2.00;;
29240;SDS011;16268;49.880;8.648;2022-08-11T18:00:44;3.45;;;1.92;;
29240;SDS011;16268;49.880;8.648;2022-08-11T18:03:11;5.35;;;1.90;;
29240;SDS011;16268;49.880;8.648;2022-08-11T18:05:53;4.43;;;1.95;;
29240;SDS011;16268;49.880;8.648;2022-08-11T18:08:20;5.65;;;2.05;;
29240;SDS011;16268;49.880;8.648;2022-08-11T18:11:05;6.15;;;1.80;;
29240;SDS011;16268;49.880;8.648;2022-08-11T18:13:51;4.85;;;2.28;;
29240;SDS011;16268;49.880;8.648;2022-08-11T18:16:36;4.70;;;1.60;;
29240;SDS011;16268;49.880;8.648;2022-08-11T18:19:21;6.20;;;1.92;;
29240;SDS011;16268;49.880;8.648;2022-08-11T18:22:05;5.20;;;1.90;;
29240;SDS011;16268;49.880;8.648;2022-08-11T18:24:55;4.90;;;1.70;;
29240;SDS011;16268;49.880;8.648;2022-08-11T18:27:43;5.10;;;1.70;;
29240;SDS011;16268;49.880;8.648;2022-08-11T18:30:30;5.82;;;1.85;;
29240;SDS011;16268;49.880;8.648;2022-08-11T18:33:19;6.55;;;2.30;;
29240;SDS011;16268;49.880;8.648;2022-08-11T18:36:04;6.43;;;2.20;;
29240;SDS011;16268;49.880;8.648;2022-08-11T18:38:51;5.85;;;2.35;;
29240;SDS011;16268;49.880;8.648;2022-08-11T18:41:39;6.72;;;2.10;;
29240;SDS011;16268;49.880;8.648;2022-08-11T18:44:26;7.70;;;2.33;;
29240;SDS011;16268;49.880;8.648;2022-08-11T18:47:13;7.57;;;2.50;;
29240;SDS011;16268;49.880;8.648;2022-08-11T18:49:59;5.25;;;2.08;;
29240;SDS011;16268;49.880;8.648;2022-08-11T18:52:47;6.82;;;2.30;;
29240;SDS011;16268;49.880;8.648;2022-08-11T18:55:35;6.72;;;2.63;;
29240;SDS011;16268;49.880;8.648;2022-08-11T18:58:20;6.82;;;2.50;;
29240;SDS011;16268;49.880;8.648;2022-08-11T19:01:12;6.32;;;3.30;;
29240;SDS011;16268;49.880;8.648;2022-08-11T19:03:57;6.22;;;3.30;;
29240;SDS011;16268;49.880;8.648;2022-08-11T19:06:45;7.88;;;3.35;;
29240;SDS011;16268;49.880;8.648;2022-08-11T19:09:32;6.10;;;2.67;;
29240;SDS011;16268;49.880;8.648;2022-08-11T19:12:18;8.82;;;2.88;;
29240;SDS011;16268;49.880;8.648;2022-08-11T19:15:04;5.95;;;2.47;;
29240;SDS011;16268;49.880;8.648;2022-08-11T19:17:50;7.88;;;2.58;;
29240;SDS011;16268;49.880;8.648;2022-08-11T19:20:36;6.07;;;2.30;;